Time;durP1;ratioP1;P1;durP2;ratioP2;P2;SDS_P1;SDS_P2;PMS_P1;PMS_P2;Temp;Humidity;BMP_temperature;BMP_pressure;BME280_temperature;BME280_humidity;BME280_pressure;Samples;Min_cycle;Max_cycle;Signal;HPM_P1;HPM_P2
2022/10/10 00:02:03;;;;;;;;;;;7.40;99.90;;;;;;4999977;28;20007;-76
2022/10/10 00:04:29;;;;;;;;;;;7.30;99.90;;;;;;5000112;28;19905;-76
2022/10/10 00:06:54;;;;;;;;;;;7.40;99.90;;;;;;4982126;28;19953;-76
2022/10/10 00:09:20;;;;;;;;;;;7.40;99.90;;;;;;4981895;28;19906;-76
2022/10/10 00:11:46;;;;;;;;;;;7.40;99.90;;;;;;4999454;28;19909;-76
2022/10/10 00:14:11;;;;;;;;;;;7.40;99.90;;;;;;5012740;28;19909;-76
2022/10/10 00:16:37;;;;;;;;;;;7.40;99.90;;;;;;5001977;28;19910;-76
2022/10/10 00:19:02;;;;;;;;;;;7.40;99.90;;;;;;5001360;28;19909;-76
2022/10/10 00:21:28;;;;;;;;;;;7.30;99.90;;;;;;5001458;28;19913;-76
2022/10/10 00:23:53;;;;;;;;;;;7.40;99.90;;;;;;5018993;28;20280;-76
2022/10/10 00:26:19;;;;;;;;;;;7.30;99.90;;;;;;5019023;28;19906;-76
2022/10/10 00:28:44;;;;;;;;;;;7.30;99.90;;;;;;5019235;28;19912;-76
2022/10/10 00:31:10;;;;;;;;;;;7.30;99.90;;;;;;5018737;28;19908;-76
2022/10/10 00:33:36;;;;;;;;;;;7.30;99.90;;;;;;5018707;28;20000;-77
2022/10/10 00:36:02;;;;;;;;;;;7.20;99.90;;;;;;5018874;28;19929;-76
2022/10/10 00:38:31;;;;;;;;;;;7.30;99.90;;;;;;5018434;28;19912;-77
2022/10/10 00:40:56;;;;;;;;;;;7.30;99.90;;;;;;5000262;28;19905;-76
2022/10/10 00:43:25;;;;;;;;;;;7.20;99.90;;;;;;5018652;28;19961;-76
2022/10/10 00:45:50;;;;;;;;;;;7.20;99.90;;;;;;5019138;28;20356;-77
2022/10/10 00:48:20;;;;;;;;;;;7.20;99.90;;;;;;5018993;28;19909;-76
2022/10/10 00:50:48;;;;;;;;;;;7.10;99.90;;;;;;5018150;28;19905;-77
2022/10/10 00:53:15;;;;;;;;;;;7.20;99.90;;;;;;5018884;28;19906;-76
2022/10/10 00:55:41;;;;;;;;;;;7.30;99.90;;;;;;5018550;28;19976;-77
2022/10/10 00:58:08;;;;;;;;;;;7.20;99.90;;;;;;5018600;28;19917;-76
2022/10/10 01:00:34;;;;;;;;;;;7.20;99.90;;;;;;5019016;28;19915;-76
2022/10/10 01:03:00;;;;;;;;;;;7.20;99.90;;;;;;5018403;28;19905;-76
2022/10/10 01:05:25;;;;;;;;;;;7.20;99.90;;;;;;5018794;28;19913;-76
2022/10/10 01:07:51;;;;;;;;;;;7.30;99.90;;;;;;5018066;28;19909;-76
2022/10/10 01:10:17;;;;;;;;;;;7.30;99.90;;;;;;5000289;28;19909;-76
2022/10/10 01:13:02;;;;;;;;;;;7.30;99.90;;;;;;5018472;28;19928;-76
2022/10/10 01:15:38;;;;;;;;;;;7.30;99.90;;;;;;5018712;28;19913;-77
2022/10/10 01:18:17;;;;;;;;;;;7.30;99.90;;;;;;5018308;28;19912;-76
2022/10/10 01:20:49;;;;;;;;;;;7.40;99.90;;;;;;5018580;28;20353;-76
2022/10/10 01:23:14;;;;;;;;;;;7.40;99.90;;;;;;5017959;28;19905;-76
2022/10/10 01:25:46;;;;;;;;;;;7.50;99.90;;;;;;5018801;28;19913;-76
2022/10/10 01:28:17;;;;;;;;;;;7.50;99.90;;;;;;5022157;28;20000;-76
2022/10/10 01:30:43;;;;;;;;;;;7.60;99.90;;;;;;5021903;28;19905;-77
2022/10/10 01:33:13;;;;;;;;;;;7.70;99.90;;;;;;5003881;28;19953;-77
2022/10/10 01:35:51;;;;;;;;;;;7.80;99.90;;;;;;5004071;28;20359;-76
2022/10/10 01:38:22;;;;;;;;;;;7.70;99.90;;;;;;5021965;28;20028;-76
2022/10/10 01:41:06;;;;;;;;;;;7.80;99.90;;;;;;5021812;28;19959;-76
2022/10/10 01:43:34;;;;;;;;;;;7.80;99.90;;;;;;5022109;28;19909;-77
2022/10/10 01:46:08;;;;;;;;;;;7.80;99.90;;;;;;5021648;28;19944;-76
2022/10/10 01:48:33;;;;;;;;;;;7.80;99.90;;;;;;5021475;28;19971;-76
2022/10/10 01:50:58;;;;;;;;;;;7.80;99.90;;;;;;5021629;28;19916;-76
2022/10/10 01:53:34;;;;;;;;;;;7.90;99.90;;;;;;5021296;28;19905;-76
2022/10/10 01:56:07;;;;;;;;;;;7.90;99.90;;;;;;5003745;28;19916;-76
2022/10/10 01:58:35;;;;;;;;;;;8.00;99.90;;;;;;5021479;28;19918;-76
2022/10/10 02:01:09;;;;;;;;;;;8.00;99.90;;;;;;5020838;28;20368;-76
2022/10/10 02:03:36;;;;;;;;;;;8.00;99.90;;;;;;5021266;28;19960;-76
2022/10/10 02:06:14;;;;;;;;;;;8.10;99.90;;;;;;5020604;28;19906;-76
2022/10/10 02:08:45;;;;;;;;;;;8.10;99.90;;;;;;5020688;28;19909;-76
2022/10/10 02:11:11;;;;;;;;;;;8.10;99.90;;;;;;5002241;28;19960;-76
2022/10/10 02:13:42;;;;;;;;;;;8.10;99.90;;;;;;5002455;28;20394;-76
2022/10/10 02:16:13;;;;;;;;;;;8.00;99.90;;;;;;5020913;28;19910;-76
2022/10/10 02:18:38;;;;;;;;;;;8.10;99.90;;;;;;5002283;28;19910;-76
2022/10/10 02:21:05;;;;;;;;;;;8.00;99.90;;;;;;5021410;28;19906;-76
2022/10/10 02:23:32;;;;;;;;;;;8.10;99.90;;;;;;5002876;28;20035;-76
2022/10/10 02:25:57;;;;;;;;;;;8.10;99.90;;;;;;5020646;28;19986;-76
2022/10/10 02:28:27;;;;;;;;;;;8.00;99.90;;;;;;5020621;28;19941;-76
2022/10/10 02:30:55;;;;;;;;;;;8.10;99.90;;;;;;5001725;28;20349;-77
2022/10/10 02:33:24;;;;;;;;;;;8.10;99.90;;;;;;5002919;28;19917;-76
2022/10/10 02:35:51;;;;;;;;;;;8.20;99.90;;;;;;5019981;28;19901;-76
2022/10/10 02:38:16;;;;;;;;;;;8.10;99.90;;;;;;5019746;28;19952;-76
2022/10/10 02:40:43;;;;;;;;;;;8.10;99.90;;;;;;5002559;28;19917;-76
2022/10/10 02:43:09;;;;;;;;;;;8.10;99.90;;;;;;5020480;28;19906;-76
2022/10/10 02:45:36;;;;;;;;;;;8.10;99.90;;;;;;5002278;28;20256;-76
2022/10/10 02:48:02;;;;;;;;;;;8.20;99.90;;;;;;5002335;28;19909;-76
2022/10/10 02:50:28;;;;;;;;;;;8.10;99.90;;;;;;5020204;28;20253;-76
2022/10/10 02:52:54;;;;;;;;;;;8.20;99.90;;;;;;5019657;28;19937;-76
2022/10/10 02:55:19;;;;;;;;;;;8.20;99.90;;;;;;5020402;28;19905;-77
2022/10/10 02:57:45;;;;;;;;;;;8.20;99.90;;;;;;4999120;28;20005;-76
2022/10/10 03:00:11;;;;;;;;;;;8.30;99.90;;;;;;5000633;28;20020;-76
2022/10/10 03:02:36;;;;;;;;;;;8.30;99.90;;;;;;4999460;28;19937;-76
2022/10/10 03:05:02;;;;;;;;;;;8.40;99.90;;;;;;4999724;28;19916;-76
2022/10/10 03:07:27;;;;;;;;;;;8.40;99.90;;;;;;5000712;28;20443;-76
2022/10/10 03:09:53;;;;;;;;;;;8.30;99.90;;;;;;4998731;28;19909;-77
2022/10/10 03:12:18;;;;;;;;;;;8.40;99.90;;;;;;5000305;28;19913;-76
2022/10/10 03:14:44;;;;;;;;;;;8.40;99.90;;;;;;5000102;28;19905;-76
2022/10/10 03:17:09;;;;;;;;;;;8.40;99.90;;;;;;5000729;28;20288;-76
2022/10/10 03:19:35;;;;;;;;;;;8.40;99.90;;;;;;4999812;28;19952;-76
2022/10/10 03:22:00;;;;;;;;;;;8.40;99.90;;;;;;5000174;28;19906;-76
2022/10/10 03:24:26;;;;;;;;;;;8.40;99.90;;;;;;4999991;28;19941;-76
2022/10/10 03:26:52;;;;;;;;;;;8.40;99.90;;;;;;4999808;28;19910;-76
2022/10/10 03:29:19;;;;;;;;;;;8.40;99.90;;;;;;5000083;28;19925;-76
2022/10/10 03:31:44;;;;;;;;;;;8.40;99.90;;;;;;4999853;28;19905;-76
2022/10/10 03:34:10;;;;;;;;;;;8.40;99.90;;;;;;4999491;28;19960;-76
2022/10/10 03:36:35;;;;;;;;;;;8.40;99.90;;;;;;4999446;28;19905;-76
2022/10/10 03:39:02;;;;;;;;;;;8.50;99.90;;;;;;4999352;28;19910;-76
2022/10/10 03:41:27;;;;;;;;;;;8.50;99.90;;;;;;4999097;28;20383;-77
2022/10/10 03:43:53;;;;;;;;;;;8.60;99.90;;;;;;4999916;28;19902;-76
2022/10/10 03:46:19;;;;;;;;;;;8.50;99.90;;;;;;5000033;28;19909;-76
2022/10/10 03:48:45;;;;;;;;;;;8.50;99.90;;;;;;4999638;28;19929;-76
2022/10/10 03:51:11;;;;;;;;;;;8.50;99.90;;;;;;4997773;28;20288;-78
2022/10/10 03:53:36;;;;;;;;;;;8.50;99.90;;;;;;4998710;28;19960;-78
2022/10/10 03:56:02;;;;;;;;;;;8.60;99.90;;;;;;4997635;28;19902;-78
2022/10/10 03:58:27;;;;;;;;;;;8.60;99.90;;;;;;5016924;28;20360;-79
2022/10/10 04:00:53;;;;;;;;;;;8.60;99.90;;;;;;4999803;28;19913;-78
2022/10/10 04:03:19;;;;;;;;;;;8.70;99.90;;;;;;5000584;28;20402;-78
2022/10/10 04:05:44;;;;;;;;;;;8.70;99.90;;;;;;5017348;28;19909;-78
2022/10/10 04:08:10;;;;;;;;;;;8.80;99.90;;;;;;5000983;28;19910;-77
2022/10/10 04:10:35;;;;;;;;;;;8.80;99.90;;;;;;5000595;28;19910;-78
2022/10/10 04:13:01;;;;;;;;;;;8.80;99.90;;;;;;5021523;28;19905;-77
2022/10/10 04:15:26;;;;;;;;;;;8.80;99.90;;;;;;5020438;28;19909;-78
2022/10/10 04:17:52;;;;;;;;;;;8.90;99.90;;;;;;5020362;28;19912;-77
2022/10/10 04:20:17;;;;;;;;;;;8.90;99.90;;;;;;5002393;28;19917;-77
2022/10/10 04:22:43;;;;;;;;;;;8.90;99.90;;;;;;5018950;28;19905;-78
2022/10/10 04:25:09;;;;;;;;;;;8.90;99.90;;;;;;5019165;28;20332;-78
2022/10/10 04:27:35;;;;;;;;;;;8.90;99.90;;;;;;5019633;28;19910;-78
2022/10/10 04:30:00;;;;;;;;;;;8.90;99.90;;;;;;5019887;28;19912;-78
2022/10/10 04:32:26;;;;;;;;;;;8.90;99.90;;;;;;5019414;28;19968;-78
2022/10/10 04:34:51;;;;;;;;;;;8.90;99.90;;;;;;5002320;28;19910;-78
2022/10/10 04:37:17;;;;;;;;;;;8.90;99.90;;;;;;5019673;28;19913;-78
2022/10/10 04:39:42;;;;;;;;;;;8.90;99.90;;;;;;5019652;28;19914;-78
2022/10/10 04:42:08;;;;;;;;;;;8.90;99.90;;;;;;5019199;28;19910;-78
2022/10/10 04:44:33;;;;;;;;;;;9.00;99.90;;;;;;5000867;28;20436;-78
2022/10/10 04:46:59;;;;;;;;;;;9.00;99.90;;;;;;5000767;28;20369;-78
2022/10/10 04:49:24;;;;;;;;;;;8.90;99.90;;;;;;5018780;28;19905;-77
2022/10/10 04:51:50;;;;;;;;;;;9.00;99.90;;;;;;5020073;28;19910;-78
2022/10/10 04:54:15;;;;;;;;;;;9.00;99.90;;;;;;5016624;28;19905;-77
2022/10/10 04:56:41;;;;;;;;;;;9.00;99.90;;;;;;5015327;28;20316;-77
2022/10/10 04:59:07;;;;;;;;;;;8.90;99.90;;;;;;4998133;28;19924;-77
2022/10/10 05:01:33;;;;;;;;;;;9.00;99.90;;;;;;5020147;28;19909;-77
2022/10/10 05:03:59;;;;;;;;;;;9.00;99.90;;;;;;5003483;28;19916;-76
2022/10/10 05:06:24;;;;;;;;;;;9.00;99.90;;;;;;5017502;28;19909;-76
2022/10/10 05:08:50;;;;;;;;;;;10.00;99.90;;;;;;5017189;28;19912;-76
2022/10/10 05:11:15;;;;;;;;;;;10.10;99.90;;;;;;5001117;28;19912;-76
2022/10/10 05:13:41;;;;;;;;;;;9.90;99.90;;;;;;5017985;28;20000;-76
2022/10/10 05:16:06;;;;;;;;;;;9.80;99.90;;;;;;4999538;28;20334;-78
2022/10/10 05:18:35;;;;;;;;;;;9.60;99.90;;;;;;5016438;28;19968;-78
2022/10/10 05:21:01;;;;;;;;;;;9.50;99.90;;;;;;4998893;28;19913;-75
2022/10/10 05:23:26;;;;;;;;;;;9.40;99.90;;;;;;5016789;28;19912;-76
2022/10/10 05:25:51;;;;;;;;;;;9.40;99.90;;;;;;5017190;28;19971;-76
2022/10/10 05:28:17;;;;;;;;;;;9.40;99.90;;;;;;5016701;28;19993;-75
2022/10/10 05:30:43;;;;;;;;;;;9.40;99.90;;;;;;5016390;28;19906;-76
2022/10/10 05:33:08;;;;;;;;;;;9.30;99.90;;;;;;5016366;28;19901;-76
2022/10/10 05:35:34;;;;;;;;;;;9.30;99.90;;;;;;5016447;28;19960;-76
2022/10/10 05:38:00;;;;;;;;;;;9.30;99.90;;;;;;5016434;28;19963;-76
2022/10/10 05:40:25;;;;;;;;;;;9.30;99.90;;;;;;5016390;28;19918;-77
2022/10/10 05:42:51;;;;;;;;;;;9.30;99.90;;;;;;5016947;28;19981;-77
2022/10/10 05:45:16;;;;;;;;;;;9.40;99.90;;;;;;5016427;28;19945;-78
2022/10/10 05:47:42;;;;;;;;;;;9.40;99.90;;;;;;5012786;28;19906;-78
2022/10/10 05:50:11;;;;;;;;;;;9.40;99.90;;;;;;4989623;28;20272;-77
2022/10/10 05:52:36;;;;;;;;;;;9.40;99.90;;;;;;4996213;28;20005;-81
2022/10/10 05:55:02;;;;;;;;;;;9.60;99.90;;;;;;4989941;28;19956;-81
2022/10/10 05:57:27;;;;;;;;;;;9.60;99.90;;;;;;4993818;28;20306;-80
2022/10/10 05:59:53;;;;;;;;;;;9.60;99.90;;;;;;5008143;28;19925;-81
2022/10/10 06:02:19;;;;;;;;;;;9.60;99.90;;;;;;5006893;28;20383;-81
2022/10/10 06:04:44;;;;;;;;;;;9.60;99.90;;;;;;4991984;28;20399;-79
2022/10/10 06:07:10;;;;;;;;;;;9.60;99.90;;;;;;4989104;28;19916;-78
2022/10/10 06:09:35;;;;;;;;;;;9.70;99.90;;;;;;4997797;28;19978;-79
2022/10/10 06:12:01;;;;;;;;;;;9.70;99.90;;;;;;4987681;28;19918;-81
2022/10/10 06:14:27;;;;;;;;;;;9.70;99.90;;;;;;5005460;28;20020;-78
2022/10/10 06:16:53;;;;;;;;;;;9.70;99.90;;;;;;4998535;28;20047;-79
2022/10/10 06:19:20;;;;;;;;;;;9.70;99.90;;;;;;5015208;28;20008;-79
2022/10/10 06:21:45;;;;;;;;;;;9.70;99.90;;;;;;5015480;28;19905;-78
2022/10/10 06:24:11;;;;;;;;;;;9.70;99.90;;;;;;5014706;28;19912;-79
2022/10/10 06:26:36;;;;;;;;;;;9.80;99.90;;;;;;5013766;28;19909;-79
2022/10/10 06:29:02;;;;;;;;;;;9.80;99.90;;;;;;4997200;28;20003;-79
2022/10/10 06:31:27;;;;;;;;;;;9.80;99.90;;;;;;5014538;28;19968;-79
2022/10/10 06:33:53;;;;;;;;;;;9.90;99.90;;;;;;5011190;28;19910;-81
2022/10/10 06:36:18;;;;;;;;;;;9.90;99.90;;;;;;5007359;28;19944;-80
2022/10/10 06:38:45;;;;;;;;;;;10.00;99.90;;;;;;5013184;28;19909;-79
2022/10/10 06:41:11;;;;;;;;;;;10.00;99.90;;;;;;5014696;28;19909;-80
2022/10/10 06:43:36;;;;;;;;;;;10.10;99.90;;;;;;4997115;28;19905;-79
2022/10/10 06:46:02;;;;;;;;;;;10.20;99.90;;;;;;5011048;28;19906;-79
2022/10/10 06:48:33;;;;;;;;;;;10.20;99.90;;;;;;4997158;28;19906;-80
2022/10/10 06:51:00;;;;;;;;;;;10.30;99.90;;;;;;4980910;28;19913;-80
2022/10/10 06:53:26;;;;;;;;;;;10.40;99.90;;;;;;4996782;28;19964;-79
2022/10/10 06:55:56;;;;;;;;;;;10.50;99.90;;;;;;5010652;28;20345;-81
2022/10/10 06:58:22;;;;;;;;;;;10.50;99.90;;;;;;5004729;28;19939;-80
2022/10/10 07:00:50;;;;;;;;;;;10.60;99.90;;;;;;4991384;28;19921;-78
2022/10/10 07:03:16;;;;;;;;;;;10.70;99.90;;;;;;4996261;28;19905;-79
2022/10/10 07:05:41;;;;;;;;;;;10.80;99.90;;;;;;4996102;28;20352;-79
2022/10/10 07:08:08;;;;;;;;;;;10.80;99.90;;;;;;4996416;28;19911;-79
2022/10/10 07:10:33;;;;;;;;;;;10.90;99.90;;;;;;4996416;28;19906;-80
2022/10/10 07:12:59;;;;;;;;;;;11.00;99.90;;;;;;4996042;28;20471;-83
2022/10/10 07:15:24;;;;;;;;;;;11.10;99.90;;;;;;4992707;28;19914;-83
2022/10/10 07:17:55;;;;;;;;;;;11.10;99.90;;;;;;4984749;28;19913;-81
2022/10/10 07:20:20;;;;;;;;;;;11.20;99.90;;;;;;4987275;28;19932;-82
2022/10/10 07:22:46;;;;;;;;;;;11.30;99.90;;;;;;4984406;28;19913;-81
2022/10/10 07:25:12;;;;;;;;;;;11.40;99.90;;;;;;4988315;28;20345;-80
2022/10/10 07:27:38;;;;;;;;;;;11.50;99.90;;;;;;4994121;28;19917;-79
2022/10/10 07:30:04;;;;;;;;;;;11.50;99.90;;;;;;5004481;28;19952;-79
2022/10/10 07:32:29;;;;;;;;;;;11.50;99.90;;;;;;5009449;28;19905;-80
2022/10/10 07:34:57;;;;;;;;;;;11.60;99.90;;;;;;4994307;28;20368;-81
2022/10/10 07:37:22;;;;;;;;;;;11.70;99.90;;;;;;4993707;28;20348;-81
2022/10/10 07:39:48;;;;;;;;;;;11.80;99.90;;;;;;4994485;28;19917;-79
2022/10/10 07:42:13;;;;;;;;;;;11.90;99.90;;;;;;5009932;28;19956;-78
2022/10/10 07:44:39;;;;;;;;;;;12.00;99.90;;;;;;4994090;28;19952;-79
2022/10/10 07:47:05;;;;;;;;;;;12.00;99.90;;;;;;5010851;28;19909;-79
2022/10/10 07:49:30;;;;;;;;;;;12.10;99.90;;;;;;4993277;28;20379;-79
2022/10/10 07:51:55;;;;;;;;;;;12.20;99.90;;;;;;5008504;28;19909;-79
2022/10/10 07:54:22;;;;;;;;;;;12.40;99.90;;;;;;5010861;28;19913;-79
2022/10/10 07:56:47;;;;;;;;;;;12.90;99.90;;;;;;5010658;28;19928;-80
2022/10/10 07:59:13;;;;;;;;;;;13.20;99.90;;;;;;5003385;28;19917;-79
2022/10/10 08:01:38;;;;;;;;;;;13.30;99.90;;;;;;5010042;28;19959;-79
2022/10/10 08:04:04;;;;;;;;;;;13.30;99.90;;;;;;5010826;28;19913;-79
2022/10/10 08:06:29;;;;;;;;;;;13.30;99.90;;;;;;4994573;28;19996;-78
2022/10/10 08:08:55;;;;;;;;;;;13.30;99.90;;;;;;5011960;28;19960;-79
2022/10/10 08:11:20;;;;;;;;;;;13.40;99.90;;;;;;4994259;28;21407;-79
2022/10/10 08:13:46;;;;;;;;;;;13.30;99.90;;;;;;4994453;28;19992;-78
2022/10/10 08:16:12;;;;;;;;;;;13.40;99.90;;;;;;4993109;28;20472;-78
2022/10/10 08:18:37;;;;;;;;;;;13.40;99.90;;;;;;5011904;28;19909;-78
2022/10/10 08:21:04;;;;;;;;;;;13.60;99.90;;;;;;5012103;28;19968;-78
2022/10/10 08:23:29;;;;;;;;;;;13.60;99.90;;;;;;5011519;28;19909;-77
2022/10/10 08:26:03;;;;;;;;;;;13.60;99.90;;;;;;5010491;28;19905;-77
2022/10/10 08:28:29;;;;;;;;;;;13.70;99.90;;;;;;4992507;28;19913;-79
2022/10/10 08:30:55;;;;;;;;;;;13.80;99.90;;;;;;4994369;28;20407;-78
2022/10/10 08:33:20;;;;;;;;;;;13.90;99.90;;;;;;5011767;28;19905;-77
2022/10/10 08:35:46;;;;;;;;;;;13.90;99.90;;;;;;4992609;28;19921;-77
2022/10/10 08:38:12;;;;;;;;;;;14.00;99.90;;;;;;5012149;28;19905;-78
2022/10/10 08:40:43;;;;;;;;;;;14.10;99.90;;;;;;5010591;28;19987;-78
2022/10/10 08:43:13;;;;;;;;;;;14.20;99.90;;;;;;4991399;28;20454;-77
2022/10/10 08:45:38;;;;;;;;;;;14.20;99.90;;;;;;5010552;28;19906;-76
2022/10/10 08:48:06;;;;;;;;;;;14.20;99.90;;;;;;5007572;28;19925;-79
2022/10/10 08:50:34;;;;;;;;;;;14.30;99.90;;;;;;4999465;28;19912;-79
2022/10/10 08:53:07;;;;;;;;;;;14.50;99.90;;;;;;4985348;28;20071;-81
2022/10/10 08:55:33;;;;;;;;;;;14.60;99.90;;;;;;5010528;28;19909;-79
2022/10/10 08:58:11;;;;;;;;;;;14.60;99.90;;;;;;5005998;28;20289;-77
2022/10/10 09:00:43;;;;;;;;;;;14.60;99.90;;;;;;5007959;28;20064;-77
2022/10/10 09:03:17;;;;;;;;;;;14.70;99.90;;;;;;4985251;28;20367;-78
2022/10/10 09:05:52;;;;;;;;;;;14.60;99.90;;;;;;5010820;28;20374;-79
2022/10/10 09:08:29;;;;;;;;;;;14.60;99.90;;;;;;4990432;28;19909;-78
2022/10/10 09:11:15;;;;;;;;;;;14.60;99.90;;;;;;4994856;28;20377;-78
2022/10/10 09:13:59;;;;;;;;;;;14.50;99.90;;;;;;4994672;28;19912;-78
2022/10/10 09:16:43;;;;;;;;;;;14.60;99.90;;;;;;4990718;28;19909;-77
2022/10/10 09:19:23;;;;;;;;;;;14.50;99.90;;;;;;4993791;28;19963;-78
2022/10/10 09:21:50;;;;;;;;;;;14.60;99.90;;;;;;5004416;28;19917;-77
2022/10/10 09:24:22;;;;;;;;;;;14.70;99.90;;;;;;4993082;28;19914;-77
2022/10/10 09:27:01;;;;;;;;;;;14.80;99.90;;;;;;5010819;28;20272;-77
2022/10/10 09:29:45;;;;;;;;;;;14.80;99.90;;;;;;5010710;28;19909;-77
2022/10/10 09:32:13;;;;;;;;;;;14.90;99.90;;;;;;4987931;28;20344;-77
2022/10/10 09:34:46;;;;;;;;;;;14.90;99.90;;;;;;5010785;28;19909;-76
2022/10/10 09:37:17;;;;;;;;;;;14.80;99.90;;;;;;5011403;28;19914;-77
2022/10/10 09:39:52;;;;;;;;;;;15.00;99.90;;;;;;5009918;28;19918;-76
2022/10/10 09:42:19;;;;;;;;;;;15.20;99.90;;;;;;5005096;28;20454;-77
2022/10/10 09:44:45;;;;;;;;;;;15.20;99.90;;;;;;5010690;28;20024;-77
2022/10/10 09:47:15;;;;;;;;;;;15.20;99.90;;;;;;4994653;28;20021;-77
2022/10/10 09:49:41;;;;;;;;;;;15.10;99.90;;;;;;5015724;28;19967;-76
2022/10/10 09:52:26;;;;;;;;;;;15.00;99.90;;;;;;5014737;28;19918;-76
2022/10/10 09:54:57;;;;;;;;;;;15.00;99.90;;;;;;5013533;28;20007;-76
2022/10/10 09:57:25;;;;;;;;;;;14.90;99.90;;;;;;5014883;28;19960;-78
2022/10/10 09:59:50;;;;;;;;;;;14.90;99.90;;;;;;5014052;28;20011;-78
2022/10/10 10:02:16;;;;;;;;;;;15.00;99.90;;;;;;5012447;28;20020;-77
2022/10/10 10:04:41;;;;;;;;;;;15.10;99.90;;;;;;5011526;28;19909;-79
2022/10/10 10:07:16;;;;;;;;;;;15.20;99.90;;;;;;4993345;28;20316;-77
2022/10/10 10:09:45;;;;;;;;;;;15.20;99.90;;;;;;4984658;28;19905;-77
2022/10/10 10:12:11;;;;;;;;;;;15.20;99.90;;;;;;5010147;28;19916;-77
2022/10/10 10:14:37;;;;;;;;;;;15.20;99.90;;;;;;5014944;28;19906;-79
2022/10/10 10:17:11;;;;;;;;;;;15.30;99.90;;;;;;4994255;28;19963;-78
2022/10/10 10:19:38;;;;;;;;;;;15.30;99.90;;;;;;5010098;28;19940;-78
2022/10/10 10:22:04;;;;;;;;;;;15.40;99.90;;;;;;5003003;28;20365;-77
2022/10/10 10:24:35;;;;;;;;;;;15.50;99.90;;;;;;5007285;28;19974;-77
2022/10/10 10:27:08;;;;;;;;;;;15.40;99.90;;;;;;5010479;28;20373;-78
2022/10/10 10:29:34;;;;;;;;;;;15.50;99.90;;;;;;5006888;28;20265;-78
2022/10/10 10:32:04;;;;;;;;;;;15.50;99.90;;;;;;5011665;28;19909;-78
2022/10/10 10:34:41;;;;;;;;;;;15.50;99.90;;;;;;5014261;28;19924;-78
2022/10/10 10:37:13;;;;;;;;;;;15.50;99.90;;;;;;5006921;28;19906;-78
2022/10/10 10:39:43;;;;;;;;;;;15.50;99.90;;;;;;4996784;28;20257;-79
2022/10/10 10:42:11;;;;;;;;;;;15.60;99.90;;;;;;5013942;28;20000;-78
2022/10/10 10:44:56;;;;;;;;;;;15.60;99.90;;;;;;4996844;28;19941;-78
2022/10/10 10:47:32;;;;;;;;;;;15.70;99.90;;;;;;5005703;28;19921;-82
2022/10/10 10:50:06;;;;;;;;;;;15.00;99.90;;;;;;4988592;28;19910;-82
2022/10/10 10:52:39;;;;;;;;;;;15.80;99.90;;;;;;4994053;28;19913;-83
2022/10/10 10:55:07;;;;;;;;;;;15.80;99.90;;;;;;5003281;28;19910;-82
2022/10/10 10:57:48;;;;;;;;;;;15.90;98.90;;;;;;4991488;28;19917;-81
2022/10/10 11:00:17;;;;;;;;;;;16.10;99.10;;;;;;5007553;28;19917;-81
2022/10/10 11:02:55;;;;;;;;;;;16.20;98.20;;;;;;4983411;28;19913;-82
2022/10/10 11:05:29;;;;;;;;;;;16.30;96.80;;;;;;5000629;28;19912;-82
2022/10/10 11:08:03;;;;;;;;;;;16.30;96.80;;;;;;5013844;28;19912;-81
2022/10/10 11:10:36;;;;;;;;;;;16.40;96.50;;;;;;4996536;28;19909;-81
2022/10/10 11:13:17;;;;;;;;;;;16.50;96.20;;;;;;4990347;28;19905;-81
2022/10/10 11:15:57;;;;;;;;;;;16.50;95.60;;;;;;5013666;28;20062;-82
2022/10/10 11:18:29;;;;;;;;;;;16.60;95.60;;;;;;4985031;28;19914;-81
2022/10/10 11:21:03;;;;;;;;;;;16.60;95.00;;;;;;5005393;28;19918;-81
2022/10/10 11:23:34;;;;;;;;;;;16.80;95.10;;;;;;5011037;28;19910;-81
2022/10/10 11:26:14;;;;;;;;;;;16.80;94.80;;;;;;5013688;28;19928;-78
2022/10/10 11:28:43;;;;;;;;;;;16.70;94.90;;;;;;5013561;28;19912;-79
2022/10/10 11:31:14;;;;;;;;;;;16.80;95.40;;;;;;5013388;28;19953;-79
2022/10/10 11:33:42;;;;;;;;;;;16.90;95.20;;;;;;4995883;28;20256;-80
2022/10/10 11:36:10;;;;;;;;;;;17.00;94.50;;;;;;5013371;28;19905;-79
2022/10/10 11:38:43;;;;;;;;;;;17.00;94.40;;;;;;4995708;28;19906;-80
2022/10/10 11:41:11;;;;;;;;;;;17.10;93.80;;;;;;5007774;28;19922;-80
2022/10/10 11:43:52;;;;;;;;;;;17.10;93.80;;;;;;4983782;28;19917;-80
2022/10/10 11:46:38;;;;;;;;;;;17.10;93.40;;;;;;4987336;28;19955;-79
2022/10/10 11:49:07;;;;;;;;;;;17.10;94.10;;;;;;5008103;28;20674;-79
2022/10/10 11:51:41;;;;;;;;;;;17.10;92.90;;;;;;5012590;28;20045;-80
2022/10/10 11:54:12;;;;;;;;;;;17.10;93.10;;;;;;4994988;28;19944;-79
2022/10/10 11:56:40;;;;;;;;;;;17.10;93.30;;;;;;4994513;28;19929;-79
2022/10/10 11:59:05;;;;;;;;;;;17.10;93.30;;;;;;4995292;28;19916;-80
2022/10/10 12:01:40;;;;;;;;;;;17.10;93.10;;;;;;4994338;28;19909;-78
2022/10/10 12:04:05;;;;;;;;;;;17.10;93.50;;;;;;5014607;28;19995;-79
2022/10/10 12:06:40;;;;;;;;;;;17.20;93.30;;;;;;5013166;28;20305;-78
2022/10/10 12:09:08;;;;;;;;;;;17.20;93.20;;;;;;5007408;28;19949;-78
2022/10/10 12:11:36;;;;;;;;;;;17.30;92.80;;;;;;5012496;28;19913;-78
2022/10/10 12:14:02;;;;;;;;;;;17.30;92.40;;;;;;5007416;28;19909;-86
2022/10/10 12:16:30;;;;;;;;;;;17.30;92.50;;;;;;4997050;28;20367;-87
2022/10/10 12:18:55;;;;;;;;;;;17.40;92.20;;;;;;5014946;28;19967;-90
2022/10/10 12:21:23;;;;;;;;;;;17.50;91.80;;;;;;4998055;28;19949;-89
2022/10/10 12:23:58;;;;;;;;;;;17.50;91.70;;;;;;4997819;28;19909;-88
2022/10/10 12:26:25;;;;;;;;;;;17.70;91.40;;;;;;5015205;28;19914;-83
2022/10/10 12:29:02;;;;;;;;;;;17.80;90.30;;;;;;4997383;28;20749;-88
2022/10/10 12:31:32;;;;;;;;;;;17.80;91.20;;;;;;5013600;28;20328;-77
2022/10/10 12:33:59;;;;;;;;;;;17.80;90.40;;;;;;5012479;28;19913;-78
2022/10/10 12:36:24;;;;;;;;;;;17.80;91.20;;;;;;5012634;28;19909;-78
2022/10/10 12:39:06;;;;;;;;;;;17.90;91.60;;;;;;5012029;28;19909;-78
2022/10/10 12:41:55;;;;;;;;;;;17.90;90.10;;;;;;5012229;28;19921;-77
2022/10/10 12:44:22;;;;;;;;;;;17.90;91.10;;;;;;4993840;28;19914;-78
2022/10/10 12:47:07;;;;;;;;;;;17.90;90.40;;;;;;5012305;28;19917;-78
2022/10/10 12:49:33;;;;;;;;;;;17.90;90.70;;;;;;5012071;28;20371;-78
2022/10/10 12:52:08;;;;;;;;;;;17.90;90.80;;;;;;5011944;28;19963;-77
2022/10/10 12:54:41;;;;;;;;;;;18.10;90.30;;;;;;5011970;28;20415;-78
2022/10/10 12:57:11;;;;;;;;;;;18.00;90.30;;;;;;5011770;28;19957;-79
2022/10/10 12:59:37;;;;;;;;;;;18.10;90.40;;;;;;5012177;28;19917;-79
2022/10/10 13:02:05;;;;;;;;;;;18.10;90.20;;;;;;5011865;28;20371;-78
2022/10/10 13:04:32;;;;;;;;;;;18.10;90.70;;;;;;5012153;28;19910;-79
2022/10/10 13:06:58;;;;;;;;;;;;;;;;;;4994436;28;20257;-81
2022/10/10 13:09:25;;;;;;;;;;;18.40;88.30;;;;;;5012266;28;19916;-79
2022/10/10 13:11:51;;;;;;;;;;;18.40;88.60;;;;;;4994097;28;20268;-80
2022/10/10 13:14:16;;;;;;;;;;;18.50;90.50;;;;;;4994469;28;19909;-79
2022/10/10 13:16:42;;;;;;;;;;;;;;;;;;5012259;28;19909;-80
2022/10/10 13:19:15;;;;;;;;;;;18.80;88.80;;;;;;4994567;28;19918;-79
2022/10/10 13:21:40;;;;;;;;;;;18.80;88.40;;;;;;4995130;28;19917;-79
2022/10/10 13:24:06;;;;;;;;;;;18.80;87.30;;;;;;5015388;28;19917;-79
2022/10/10 13:26:33;;;;;;;;;;;18.90;88.80;;;;;;4998403;28;19916;-79
2022/10/10 13:29:00;;;;;;;;;;;19.00;87.90;;;;;;5010061;28;19922;-79
2022/10/10 13:31:27;;;;;;;;;;;19.00;86.70;;;;;;5003431;28;20337;-79
2022/10/10 13:33:56;;;;;;;;;;;19.00;87.10;;;;;;5007907;28;19953;-79
2022/10/10 13:36:21;;;;;;;;;;;19.00;87.20;;;;;;5015220;28;19992;-79
2022/10/10 13:38:48;;;;;;;;;;;18.90;87.70;;;;;;5015916;28;19948;-79
2022/10/10 13:41:15;;;;;;;;;;;18.90;88.00;;;;;;4998102;28;19906;-79
2022/10/10 13:43:41;;;;;;;;;;;18.90;88.80;;;;;;5015201;28;19992;-79
2022/10/10 13:46:18;;;;;;;;;;;18.90;88.80;;;;;;5015865;28;20012;-78
2022/10/10 13:48:43;;;;;;;;;;;18.80;88.80;;;;;;5013228;28;19956;-79
2022/10/10 13:51:10;;;;;;;;;;;18.80;90.30;;;;;;5002391;28;19945;-79
2022/10/10 13:53:52;;;;;;;;;;;18.70;90.50;;;;;;4985497;28;19910;-79
2022/10/10 13:56:21;;;;;;;;;;;18.60;90.70;;;;;;4988775;28;19909;-80
2022/10/10 13:58:51;;;;;;;;;;;18.50;90.80;;;;;;4997920;28;19913;-79
2022/10/10 14:01:26;;;;;;;;;;;18.50;91.10;;;;;;4997753;28;19916;-79
2022/10/10 14:03:52;;;;;;;;;;;18.50;91.50;;;;;;5015479;28;20384;-79
2022/10/10 14:06:19;;;;;;;;;;;18.40;91.20;;;;;;5015525;28;19916;-79
2022/10/10 14:08:45;;;;;;;;;;;18.40;91.10;;;;;;5014599;28;19909;-80
2022/10/10 14:11:19;;;;;;;;;;;18.30;91.60;;;;;;5005551;28;19968;-79
2022/10/10 14:13:46;;;;;;;;;;;18.20;91.90;;;;;;5007432;28;19906;-79
2022/10/10 14:16:18;;;;;;;;;;;18.20;92.20;;;;;;5011289;28;19909;-79
2022/10/10 14:18:44;;;;;;;;;;;18.10;92.60;;;;;;5000809;28;19913;-79
2022/10/10 14:21:10;;;;;;;;;;;18.10;93.00;;;;;;4995146;28;19913;-79
2022/10/10 14:23:36;;;;;;;;;;;18.10;93.10;;;;;;5015106;28;19905;-79
2022/10/10 14:26:02;;;;;;;;;;;18.10;93.30;;;;;;5014942;28;20011;-79
2022/10/10 14:28:28;;;;;;;;;;;18.00;93.60;;;;;;4997059;28;19953;-79
2022/10/10 14:30:54;;;;;;;;;;;17.90;94.00;;;;;;5014859;28;19967;-79